This is the latest recevied weather packets stored in our database for station/object NM5PB-13. If no packets are shown the sender has not sent any weather packets the latest 1 day(s).
| Time | Temp. | Humidity | Pressure | Rain* | Wind** | Luminosity | Snow |
|---|---|---|---|---|---|---|---|
| 1778084151 | 9.44° C | 43% | 1016 hPa | 0 mm | - | - | - |
| 1778083248 | 10° C | 43% | 1016 hPa | 0 mm | - | - | - |
| 1778082343 | 10° C | 45% | 1016 hPa | 0 mm | - | - | - |
| 1778076017 | 7.22° C | 53% | 1016 hPa | 0 mm | - | - | - |
| 1778074208 | 6.11° C | 56% | 1016 hPa | 0 mm | - | - | - |
| 1778073305 | 5.56° C | 59% | 1015 hPa | 0 mm | - | - | - |
| 1778071485 | 5° C | 61% | 1016 hPa | 0 mm | - | - | - |
| 1778070574 | 4.44° C | 61% | 1015 hPa | 0 mm | - | - | - |
| 1778068745 | 3.89° C | 63% | 1015 hPa | 0 mm | - | - | - |
| 1778067830 | 3.89° C | 63% | 1015 hPa | 0 mm | - | - | - |
| 1778066923 | 3.89° C | 62% | 1014 hPa | 0 mm | - | - | - |
| 1778064185 | 3.89° C | 63% | 1014 hPa | 0 mm | - | - | - |
| 1778063273 | 3.89° C | 63% | 1014 hPa | 0 mm | - | - | - |
| 1778062363 | 3.89° C | 63% | 1014 hPa | 0 mm | - | - | - |
| 1778059625 | 3.89° C | 62% | 1013 hPa | 0 mm | - | - | - |
| 1778057803 | 4.44° C | 62% | 1013 hPa | 0 mm | - | - | - |
| 1778056898 | 4.44° C | 61% | 1013 hPa | 0 mm | - | - | - |
| 1778055985 | 4.44° C | 61% | 1013 hPa | 0 mm | - | - | - |
| 1778055068 | 4.44° C | 62% | 1013 hPa | 0 mm | - | - | - |
| 1778054163 | 4.44° C | 63% | 1013 hPa | 0 mm | - | - | - |
| 1778052343 | 2.78° C | 77% | 1013 hPa | 0 mm | - | - | - |
| 1778050533 | 2.78° C | 77% | 1013 hPa | 0 mm | - | - | - |
| 1778049625 | 3.33° C | 77% | 1013 hPa | 0 mm | - | - | - |
| 1778046916 | 3.89° C | 74% | 1013 hPa | 0 mm | - | - | - |
| 1778046011 | 4.44° C | 72% | 1013 hPa | 0 mm | - | - | - |
* Rain latest hour (hover to see other rain measurements)
** Current wind speed in m/s (hover to see current wind gust speed)